createdAt,value
2022-10-01T00:01:14.945Z,100333.00
2022-10-01T00:03:48.202Z,100339.36
2022-10-01T00:06:22.389Z,100335.97
2022-10-01T00:08:55.912Z,100331.19
2022-10-01T00:11:31.624Z,100327.23
2022-10-01T00:14:04.784Z,100325.91
2022-10-01T00:16:39.197Z,100324.54
2022-10-01T00:19:15.579Z,100327.17
2022-10-01T00:21:48.415Z,100326.74
2022-10-01T00:24:21.564Z,100332.45
2022-10-01T00:26:55.156Z,100327.55
2022-10-01T00:29:28.230Z,100324.43
2022-10-01T00:32:01.701Z,100322.28
2022-10-01T00:34:34.692Z,100324.00
2022-10-01T00:37:10.642Z,100324.92
2022-10-01T00:39:43.052Z,100319.54
2022-10-01T00:42:25.487Z,100313.19
2022-10-01T00:45:00.635Z,100318.34
2022-10-01T00:47:38.292Z,100317.95
2022-10-01T00:50:33.477Z,100329.31
2022-10-01T00:53:11.121Z,100326.57
2022-10-01T00:55:56.117Z,100326.52
2022-10-01T00:58:30.186Z,100331.67
2022-10-01T01:01:03.229Z,100328.87
2022-10-01T01:03:37.328Z,100335.06
2022-10-01T01:06:10.287Z,100333.42
2022-10-01T01:08:44.023Z,100338.05
2022-10-01T01:11:24.287Z,100336.13
2022-10-01T01:14:17.422Z,100340.78
2022-10-01T01:17:08.054Z,100339.70
2022-10-01T01:20:21.924Z,100346.28
2022-10-01T01:23:11.524Z,100344.39
2022-10-01T01:26:16.538Z,100338.23
2022-10-01T01:28:53.164Z,100338.94
2022-10-01T01:31:34.546Z,100345.29
2022-10-01T01:34:13.625Z,100349.41
2022-10-01T01:36:51.170Z,100352.75
2022-10-01T01:39:26.361Z,100354.42
2022-10-01T01:42:04.054Z,100350.71
2022-10-01T01:44:41.005Z,100347.79
2022-10-01T01:47:15.526Z,100349.35
2022-10-01T01:49:50.215Z,100346.52
2022-10-01T01:52:22.893Z,100352.87
2022-10-01T01:54:56.842Z,100338.15
2022-10-01T01:57:29.870Z,100339.17
2022-10-01T02:00:04.148Z,100341.95
2022-10-01T02:02:41.693Z,100340.72
2022-10-01T02:05:19.133Z,100337.30
2022-10-01T02:08:02.329Z,100336.55
2022-10-01T02:10:48.397Z,100336.16
2022-10-01T02:13:48.295Z,100333.66
2022-10-01T02:16:31.963Z,100328.06
2022-10-01T02:19:21.243Z,100328.95
2022-10-01T02:22:01.748Z,100326.80
2022-10-01T02:24:45.717Z,100329.58
2022-10-01T02:27:32.318Z,100329.66
2022-10-01T02:30:08.875Z,100332.83
2022-10-01T02:32:45.336Z,100342.56
2022-10-01T02:35:20.636Z,100333.72
2022-10-01T02:37:54.810Z,100342.13
2022-10-01T02:40:31.200Z,100341.78
2022-10-01T02:43:20.378Z,100351.20
2022-10-01T02:45:58.747Z,100346.89
2022-10-01T02:48:31.993Z,100345.25
2022-10-01T02:51:09.515Z,100350.15
2022-10-01T02:53:48.410Z,100349.34
2022-10-01T02:56:23.042Z,100354.20
2022-10-01T02:58:56.015Z,100355.48
2022-10-01T03:01:29.987Z,100353.27
2022-10-01T03:04:03.307Z,100352.35
2022-10-01T03:06:37.485Z,100356.84
2022-10-01T03:09:10.392Z,100360.85
2022-10-01T03:11:45.023Z,100362.70
2022-10-01T03:14:19.365Z,100360.11
2022-10-01T03:16:53.326Z,100357.55
2022-10-01T03:19:26.239Z,100359.78
2022-10-01T03:21:59.224Z,100360.67
2022-10-01T03:24:32.650Z,100365.95
2022-10-01T03:27:05.627Z,100362.43
2022-10-01T03:29:38.483Z,100362.87
2022-10-01T03:32:11.624Z,100363.80
2022-10-01T03:34:45.048Z,100358.55
2022-10-01T03:37:17.824Z,100362.97
2022-10-01T03:39:51.457Z,100369.21
2022-10-01T03:42:24.333Z,100369.66
2022-10-01T03:44:58.138Z,100366.05
2022-10-01T03:47:30.991Z,100364.72
2022-10-01T03:50:03.987Z,100367.89
2022-10-01T03:52:37.771Z,100371.90
2022-10-01T03:55:11.422Z,100368.77
2022-10-01T03:57:44.436Z,100375.78
2022-10-01T04:00:18.734Z,100379.35
2022-10-01T04:02:51.457Z,100379.44
2022-10-01T04:05:25.940Z,100380.41
2022-10-01T04:07:59.979Z,100383.09
2022-10-01T04:10:33.607Z,100381.38
2022-10-01T04:13:07.635Z,100386.39
2022-10-01T04:15:41.033Z,100389.91
2022-10-01T04:18:14.120Z,100394.77
2022-10-01T04:20:47.249Z,100391.72
2022-10-01T04:23:20.150Z,100399.73
2022-10-01T04:25:53.355Z,100400.75
2022-10-01T04:28:26.143Z,100399.59
2022-10-01T04:31:16.763Z,100405.45
2022-10-01T04:33:49.786Z,100403.80
2022-10-01T04:36:24.028Z,100406.09
2022-10-01T04:39:02.110Z,100414.47
2022-10-01T04:41:34.467Z,100410.50
2022-10-01T04:44:07.084Z,100412.79
2022-10-01T04:46:40.336Z,100415.88
2022-10-01T04:49:13.100Z,100416.76
2022-10-01T04:51:45.973Z,100422.12
2022-10-01T04:54:18.774Z,100420.00
2022-10-01T04:56:51.764Z,100416.13
2022-10-01T04:59:25.913Z,100419.84
2022-10-01T05:01:58.131Z,100416.00
2022-10-01T05:04:31.025Z,100414.72
2022-10-01T05:07:04.129Z,100417.81
2022-10-01T05:09:37.077Z,100419.29
2022-10-01T05:12:09.988Z,100413.27
2022-10-01T05:14:43.025Z,100418.23
2022-10-01T05:17:17.598Z,100416.98
2022-10-01T05:19:52.403Z,100419.67
2022-10-01T05:22:25.353Z,100416.19
2022-10-01T05:24:59.829Z,100425.49
2022-10-01T05:27:40.389Z,100424.72
2022-10-01T05:30:17.319Z,100425.69
2022-10-01T05:33:02.454Z,100422.63
2022-10-01T05:35:35.295Z,100421.38
2022-10-01T05:38:08.203Z,100413.00
2022-10-01T05:40:41.772Z,100412.63
2022-10-01T05:43:14.919Z,100407.48
2022-10-01T05:45:48.299Z,100414.80
2022-10-01T05:48:22.091Z,100414.97
2022-10-01T05:50:54.659Z,100422.95
2022-10-01T05:53:27.827Z,100421.62
2022-10-01T05:56:05.491Z,100417.66
2022-10-01T05:58:39.071Z,100415.41
2022-10-01T06:01:11.761Z,100415.01
2022-10-01T06:03:45.132Z,100411.98
2022-10-01T06:06:20.107Z,100400.58
2022-10-01T06:08:53.785Z,100405.61
2022-10-01T06:11:27.372Z,100405.30
2022-10-01T06:14:01.152Z,100400.98
2022-10-01T06:16:36.095Z,100405.60
2022-10-01T06:19:09.313Z,100408.41
2022-10-01T06:21:42.726Z,100408.13
2022-10-01T06:24:15.638Z,100404.34
2022-10-01T06:26:49.310Z,100411.06
2022-10-01T06:29:22.203Z,100404.47
2022-10-01T06:31:55.410Z,100401.02
2022-10-01T06:34:29.057Z,100400.30
2022-10-01T06:37:02.483Z,100404.05
2022-10-01T06:39:35.358Z,100396.70
2022-10-01T06:42:08.380Z,100401.70
2022-10-01T06:44:42.568Z,100392.97
2022-10-01T06:47:14.648Z,100382.91
2022-10-01T06:49:47.891Z,100387.41
2022-10-01T06:52:39.081Z,100387.44
2022-10-01T06:55:16.475Z,100383.95
2022-10-01T06:57:47.232Z,100382.66
2022-10-01T07:00:20.120Z,100380.02
2022-10-01T07:02:53.368Z,100373.02
2022-10-01T07:05:27.540Z,100374.42
2022-10-01T07:08:00.215Z,100383.34
2022-10-01T07:10:35.277Z,100382.13
2022-10-01T07:13:18.609Z,100378.26
2022-10-01T07:15:51.445Z,100381.92
2022-10-01T07:18:24.963Z,100380.33
2022-10-01T07:20:59.616Z,100377.37
2022-10-01T07:23:32.577Z,100385.00
2022-10-01T07:26:09.560Z,100385.09
2022-10-01T07:28:42.677Z,100380.70
2022-10-01T07:31:16.255Z,100382.96
2022-10-01T07:33:49.202Z,100381.25
2022-10-01T07:36:22.047Z,100380.98
2022-10-01T07:38:56.115Z,100378.88
2022-10-01T07:41:28.846Z,100377.21
2022-10-01T07:44:03.713Z,100372.91
2022-10-01T07:46:37.047Z,100368.11
2022-10-01T07:49:11.580Z,100367.27
2022-10-01T07:51:45.083Z,100365.50
2022-10-01T07:54:20.480Z,100371.31
2022-10-01T07:56:56.085Z,100377.09
2022-10-01T07:59:31.498Z,100380.69
2022-10-01T08:02:04.832Z,100372.28
2022-10-01T08:04:55.563Z,100379.41
2022-10-01T08:07:29.139Z,100365.70
2022-10-01T08:10:03.825Z,100363.98
2022-10-01T08:12:37.222Z,100365.38
2022-10-01T08:15:11.988Z,100365.45
2022-10-01T08:17:45.750Z,100369.52
2022-10-01T08:20:18.767Z,100366.00
2022-10-01T08:22:51.738Z,100371.36
2022-10-01T08:25:25.541Z,100370.48
2022-10-01T08:28:00.540Z,100367.33
2022-10-01T08:30:34.123Z,100365.57
2022-10-01T08:33:07.515Z,100365.57
2022-10-01T08:35:43.823Z,100358.94
2022-10-01T08:38:17.869Z,100363.40
2022-10-01T08:40:52.601Z,100346.59
2022-10-01T08:43:40.106Z,100347.59
2022-10-01T08:46:19.670Z,100349.00
2022-10-01T08:49:12.241Z,100342.84
2022-10-01T08:51:55.385Z,100340.64
2022-10-01T08:54:41.338Z,100338.02
2022-10-01T08:57:32.375Z,100338.91
2022-10-01T09:00:10.193Z,100334.03
2022-10-01T09:02:46.234Z,100326.94
2022-10-01T09:05:32.617Z,100324.77
2022-10-01T09:08:35.346Z,100321.23
2022-10-01T09:11:26.034Z,100314.17
2022-10-01T09:14:15.267Z,100313.79
2022-10-01T09:17:11.152Z,100310.78
2022-10-01T09:20:14.322Z,100316.58
2022-10-01T09:23:15.708Z,100306.81
2022-10-01T09:25:52.890Z,100298.84
2022-10-01T09:28:35.036Z,100304.64
2022-10-01T09:31:32.023Z,100298.86
2022-10-01T09:34:19.372Z,100296.20
2022-10-01T09:36:59.644Z,100293.54
2022-10-01T09:39:43.249Z,100294.88
2022-10-01T09:42:16.319Z,100291.77
2022-10-01T09:44:49.771Z,100293.10
2022-10-01T09:47:25.487Z,100282.89
2022-10-01T09:49:59.929Z,100272.67
2022-10-01T09:52:38.871Z,100270.00
2022-10-01T09:55:42.059Z,100268.66
2022-10-01T09:58:20.178Z,100266.88
2022-10-01T10:00:54.915Z,100260.20
2022-10-01T10:03:31.335Z,100262.87
2022-10-01T10:06:06.967Z,100257.11
2022-10-01T10:08:43.780Z,100258.86
2022-10-01T10:11:23.598Z,100253.98
2022-10-01T10:14:06.877Z,100249.98
2022-10-01T10:16:46.431Z,100245.97
2022-10-01T10:19:28.765Z,100240.63
2022-10-01T10:22:16.257Z,100237.50
2022-10-01T10:24:49.016Z,100233.02
2022-10-01T10:27:31.487Z,100230.80
2022-10-01T10:30:09.230Z,100224.09
2022-10-01T10:32:42.993Z,100211.15
2022-10-01T10:35:20.375Z,100207.12
2022-10-01T10:37:57.534Z,100208.45
2022-10-01T10:40:35.012Z,100205.78
2022-10-01T10:43:09.685Z,100204.41
2022-10-01T10:45:46.185Z,100203.43
2022-10-01T10:48:20.010Z,100198.04
2022-10-01T10:51:01.762Z,100194.00
2022-10-01T10:53:46.987Z,100186.42
2022-10-01T10:56:25.554Z,100183.73
2022-10-01T10:59:01.385Z,100181.94
2022-10-01T11:01:35.376Z,100176.12
2022-10-01T11:04:11.645Z,100176.12
2022-10-01T11:06:44.443Z,100174.36
2022-10-01T11:09:19.140Z,100176.54
2022-10-01T11:12:22.363Z,100169.39
2022-10-01T11:15:23.472Z,100173.86
2022-10-01T11:18:23.327Z,100173.38
2022-10-01T11:21:15.751Z,100158.66
2022-10-01T11:24:12.277Z,100158.64
2022-10-01T11:26:53.287Z,100157.30
2022-10-01T11:29:38.099Z,100161.28
2022-10-01T11:32:21.480Z,100155.48
2022-10-01T11:35:31.119Z,100154.12
2022-10-01T11:38:42.307Z,100153.63
2022-10-01T11:41:31.899Z,100151.83
2022-10-01T11:44:22.364Z,100149.57
2022-10-01T11:47:05.416Z,100146.00
2022-10-01T11:50:00.624Z,100139.28
2022-10-01T11:52:41.688Z,100141.08
2022-10-01T11:56:13.314Z,100136.17
2022-10-01T11:58:57.546Z,100139.75
2022-10-01T12:01:49.230Z,100132.15
2022-10-01T12:04:40.944Z,100136.16
2022-10-01T12:07:30.200Z,100134.40
2022-10-01T12:10:39.640Z,100129.48
2022-10-01T12:13:29.401Z,100125.97
2022-10-01T12:16:37.229Z,100124.67
2022-10-01T12:19:14.824Z,100119.33
2022-10-01T12:21:58.292Z,100128.71
2022-10-01T12:24:46.181Z,100127.38
2022-10-01T12:27:54.264Z,100119.39
2022-10-01T12:30:30.642Z,100130.14
2022-10-01T12:33:16.340Z,100120.41
2022-10-01T12:36:06.164Z,100123.98
2022-10-01T12:38:47.079Z,100122.25
2022-10-01T12:41:42.505Z,100120.02
2022-10-01T12:44:29.488Z,100113.36
2022-10-01T12:47:32.677Z,100111.61
2022-10-01T12:50:35.855Z,100103.59
2022-10-01T12:53:42.277Z,100107.60
2022-10-01T12:56:30.706Z,100102.23
2022-10-01T12:59:32.133Z,100096.41
2022-10-01T13:02:27.429Z,100095.05
2022-10-01T13:05:28.773Z,100093.72
2022-10-01T13:08:21.144Z,100094.20
2022-10-01T13:11:29.139Z,100091.95
2022-10-01T13:14:03.705Z,100090.19
2022-10-01T13:16:54.709Z,100088.39
2022-10-01T13:19:47.026Z,100084.34
2022-10-01T13:22:46.179Z,100074.47
2022-10-01T13:25:26.689Z,100077.56
2022-10-01T13:28:13.431Z,100075.73
2022-10-01T13:31:02.820Z,100071.69
2022-10-01T13:33:39.174Z,100072.97
2022-10-01T13:36:13.479Z,100076.08
2022-10-01T13:38:48.256Z,100067.16
2022-10-01T13:41:24.861Z,100072.95
2022-10-01T13:44:26.985Z,100071.63
2022-10-01T13:47:10.251Z,100074.75
2022-10-01T13:49:43.225Z,100073.44
2022-10-01T13:52:22.571Z,100069.45
2022-10-01T13:54:58.245Z,100078.86
2022-10-01T13:57:39.401Z,100079.80
2022-10-01T14:00:19.758Z,100075.83
2022-10-01T14:03:29.894Z,100078.55
2022-10-01T14:06:06.673Z,100082.19
2022-10-01T14:09:33.063Z,100082.70
2022-10-01T14:12:28.011Z,100077.39
2022-10-01T14:15:21.593Z,100077.44
2022-10-01T14:18:07.224Z,100082.83
2022-10-01T14:21:18.203Z,100082.38
2022-10-01T14:24:24.422Z,100090.00
2022-10-01T14:27:07.520Z,100084.23
2022-10-01T14:29:55.015Z,100082.05
2022-10-01T14:32:49.279Z,100085.63
2022-10-01T14:35:41.979Z,100090.58
2022-10-01T14:38:21.121Z,100084.80
2022-10-01T14:40:55.152Z,100081.28
2022-10-01T14:43:31.534Z,100083.10
2022-10-01T14:46:17.191Z,100079.11
2022-10-01T14:49:00.207Z,100075.55
2022-10-01T14:51:33.622Z,100072.02
2022-10-01T14:54:06.438Z,100071.16
2022-10-01T14:56:42.747Z,100070.72
2022-10-01T14:59:22.989Z,100070.73
2022-10-01T15:02:02.722Z,100072.97
2022-10-01T15:04:36.012Z,100075.19
2022-10-01T15:07:13.673Z,100071.19
2022-10-01T15:09:47.903Z,100075.60
2022-10-01T15:12:22.815Z,100078.72
2022-10-01T15:14:57.195Z,100074.70
2022-10-01T15:17:29.928Z,100075.16
2022-10-01T15:20:03.908Z,100076.47
2022-10-01T15:22:36.914Z,100075.57
2022-10-01T15:25:14.316Z,100077.30
2022-10-01T15:27:49.532Z,100074.19
2022-10-01T15:30:23.637Z,100072.80
2022-10-01T15:32:55.694Z,100072.80
2022-10-01T15:35:28.475Z,100083.84
2022-10-01T15:38:01.364Z,100084.69
2022-10-01T15:40:36.121Z,100080.68
2022-10-01T15:43:15.856Z,100075.70
2022-10-01T15:45:53.368Z,100079.66
2022-10-01T15:48:31.153Z,100079.66
2022-10-01T15:51:25.795Z,100083.15
2022-10-01T15:54:02.961Z,100078.23
2022-10-01T15:56:36.210Z,100085.73
2022-10-01T15:59:16.558Z,100084.81
2022-10-01T16:01:49.851Z,100075.92
2022-10-01T16:04:23.605Z,100068.75
2022-10-01T16:06:57.282Z,100069.61
2022-10-01T16:09:31.201Z,100068.23
2022-10-01T16:12:14.512Z,100064.64
2022-10-01T16:15:02.484Z,100071.25
2022-10-01T16:17:42.716Z,100064.13
2022-10-01T16:20:38.027Z,100064.08
2022-10-01T16:23:43.875Z,100065.84
2022-10-01T16:26:38.460Z,100066.24
2022-10-01T16:29:19.609Z,100070.59
2022-10-01T16:31:53.093Z,100072.76
2022-10-01T16:34:28.343Z,100075.80
2022-10-01T16:37:01.182Z,100080.64
2022-10-01T16:39:35.154Z,100078.41
2022-10-01T16:42:23.511Z,100074.81
2022-10-01T16:44:43.093Z,100080.98
2022-10-01T16:47:15.859Z,100088.91
2022-10-01T16:49:50.498Z,100077.75
2022-10-01T16:52:23.818Z,100073.30
2022-10-01T16:54:56.802Z,100074.59
2022-10-01T16:57:30.367Z,100074.56
2022-10-01T17:00:03.481Z,100067.89
2022-10-01T17:02:37.182Z,100068.27
2022-10-01T17:05:25.685Z,100065.59
2022-10-01T17:08:01.847Z,100069.07
2022-10-01T17:10:38.718Z,100071.22
2022-10-01T17:13:13.050Z,100068.10
2022-10-01T17:15:48.690Z,100072.48
2022-10-01T17:18:22.398Z,100059.16
2022-10-01T17:20:55.535Z,100063.98
2022-10-01T17:23:28.755Z,100050.19
2022-10-01T17:26:01.793Z,100049.72
2022-10-01T17:28:35.064Z,100047.01
2022-10-01T17:31:12.235Z,100043.84
2022-10-01T17:33:44.785Z,100050.46
2022-10-01T17:36:17.531Z,100045.56
2022-10-01T17:38:50.462Z,100039.77
2022-10-01T17:41:23.791Z,100040.17
2022-10-01T17:43:56.689Z,100042.77
2022-10-01T17:46:31.277Z,100040.49
2022-10-01T17:49:04.559Z,100037.72
2022-10-01T17:51:37.800Z,100025.25
2022-10-01T17:54:10.749Z,100030.52
2022-10-01T17:56:44.426Z,100023.86
2022-10-01T17:59:19.255Z,100018.96
2022-10-01T18:01:53.343Z,100013.64
2022-10-01T18:04:26.783Z,100010.53
2022-10-01T18:07:00.238Z,100006.04
2022-10-01T18:09:33.114Z,100001.12
2022-10-01T18:12:06.383Z,99995.33
2022-10-01T18:14:40.524Z,99995.77
2022-10-01T18:17:15.768Z,99990.87
2022-10-01T18:19:54.247Z,99984.63
2022-10-01T18:22:25.222Z,99989.50
2022-10-01T18:24:58.506Z,99987.26
2022-10-01T18:27:31.568Z,99981.50
2022-10-01T18:30:05.016Z,99982.36
2022-10-01T18:32:54.617Z,99980.13
2022-10-01T18:35:33.744Z,99977.87
2022-10-01T18:38:21.756Z,99979.61
2022-10-01T18:40:58.446Z,99974.29
2022-10-01T18:43:33.802Z,99976.45
2022-10-01T18:46:36.656Z,99976.44
2022-10-01T18:49:29.390Z,99978.62
2022-10-01T18:52:27.916Z,99976.37
2022-10-01T18:55:30.708Z,99967.45
2022-10-01T18:58:15.348Z,99964.75
2022-10-01T19:00:58.937Z,99958.09
2022-10-01T19:04:14.103Z,99951.41
2022-10-01T19:07:03.848Z,99956.25
2022-10-01T19:09:54.550Z,99946.91
2022-10-01T19:12:32.539Z,99955.66
2022-10-01T19:15:16.368Z,99963.56
2022-10-01T19:18:02.839Z,99959.47
2022-10-01T19:21:15.992Z,99955.90
2022-10-01T19:24:10.089Z,99961.17
2022-10-01T19:26:47.692Z,99962.39
2022-10-01T19:30:01.713Z,99962.39
2022-10-01T19:33:01.919Z,99957.98
2022-10-01T19:35:51.523Z,99959.69
2022-10-01T19:38:37.819Z,99952.98
2022-10-01T19:41:27.114Z,99952.97
2022-10-01T19:44:04.406Z,99937.02
2022-10-01T19:46:45.925Z,99939.23
2022-10-01T19:49:22.795Z,99937.83
2022-10-01T19:52:01.664Z,99939.57
2022-10-01T19:54:38.794Z,99929.31
2022-10-01T19:57:25.322Z,99933.70
2022-10-01T20:00:12.130Z,99930.14
2022-10-01T20:03:22.987Z,99929.20
2022-10-01T20:06:08.021Z,99924.41
2022-10-01T20:08:57.313Z,99917.81
2022-10-01T20:11:47.885Z,99909.02
2022-10-01T20:14:58.436Z,99909.91
2022-10-01T20:17:57.117Z,99910.78
2022-10-01T20:21:04.532Z,99909.95
2022-10-01T20:23:45.252Z,99910.42
2022-10-01T20:26:37.123Z,99915.75
2022-10-01T20:29:35.028Z,99909.56
2022-10-01T20:32:36.507Z,99906.51
2022-10-01T20:35:17.289Z,99906.92
2022-10-01T20:37:55.259Z,99901.57
2022-10-01T20:40:41.544Z,99900.69
2022-10-01T20:43:43.272Z,99894.48
2022-10-01T20:46:39.184Z,99892.23
2022-10-01T20:49:37.159Z,99888.65
2022-10-01T20:52:48.109Z,99883.75
2022-10-01T20:55:29.462Z,99881.49
2022-10-01T20:58:23.204Z,99884.94
2022-10-01T21:01:00.942Z,99879.64
2022-10-01T21:03:40.424Z,99880.50
2022-10-01T21:06:26.432Z,99883.56
2022-10-01T21:09:03.899Z,99886.18
2022-10-01T21:11:48.442Z,99885.25
2022-10-01T21:14:28.060Z,99875.44
2022-10-01T21:17:30.074Z,99872.70
2022-10-01T21:20:43.896Z,99869.06
2022-10-01T21:23:30.420Z,99868.52
2022-10-01T21:26:17.769Z,99873.72
2022-10-01T21:29:28.683Z,99862.61
2022-10-01T21:32:17.870Z,99867.81
2022-10-01T21:35:14.617Z,99860.23
2022-10-01T21:38:04.289Z,99864.14
2022-10-01T21:41:03.138Z,99860.05
2022-10-01T21:43:59.395Z,99856.91
2022-10-01T21:46:46.035Z,99859.52
2022-10-01T21:49:52.113Z,99858.17
2022-10-01T21:52:35.745Z,99850.20
2022-10-01T21:55:30.013Z,99848.03
2022-10-01T21:58:25.479Z,99850.23
2022-10-01T22:01:28.613Z,99849.42
2022-10-01T22:04:24.729Z,99841.10
2022-10-01T22:07:05.013Z,99838.93
2022-10-01T22:09:45.206Z,99838.43
2022-10-01T22:12:18.670Z,99828.80
2022-10-01T22:14:53.376Z,99828.38
2022-10-01T22:17:30.600Z,99827.94
2022-10-01T22:20:05.620Z,99822.66
2022-10-01T22:22:41.877Z,99827.06
2022-10-01T22:25:15.796Z,99828.38
2022-10-01T22:27:57.193Z,99828.77
2022-10-01T22:30:32.674Z,99823.04
2022-10-01T22:33:20.242Z,99816.45
2022-10-01T22:36:18.708Z,99808.02
2022-10-01T22:38:55.276Z,99808.47
2022-10-01T22:41:39.448Z,99806.23
2022-10-01T22:44:19.301Z,99809.23
2022-10-01T22:47:15.372Z,99804.30
2022-10-01T22:50:14.408Z,99799.80
2022-10-01T22:53:04.332Z,99803.71
2022-10-01T22:55:48.444Z,99794.75
2022-10-01T22:58:47.271Z,99785.85
2022-10-01T23:02:01.905Z,99779.16
2022-10-01T23:04:59.832Z,99774.22
2022-10-01T23:07:46.319Z,99765.39
2022-10-01T23:10:35.541Z,99762.27
2022-10-01T23:13:22.806Z,99764.06
2022-10-01T23:16:28.501Z,99762.74
2022-10-01T23:19:23.879Z,99760.13
2022-10-01T23:22:30.965Z,99762.77
2022-10-01T23:25:56.293Z,99767.14
2022-10-01T23:28:39.331Z,99759.22
2022-10-01T23:31:33.397Z,99754.79
2022-10-01T23:34:19.543Z,99739.34
2022-10-01T23:37:11.955Z,99739.34
2022-10-01T23:39:59.018Z,99735.83
2022-10-01T23:43:02.262Z,99738.94
2022-10-01T23:45:51.231Z,99736.33
2022-10-01T23:48:54.693Z,99735.03
2022-10-01T23:51:32.079Z,99729.66
2022-10-01T23:54:27.952Z,99718.06
2022-10-01T23:57:17.639Z,99717.56
